sensor_id;sensor_type;location;lat;lon;timestamp;P1;durP1;ratioP1;P2;durP2;ratioP2
20034;SDS011;10178;48.034;9.800;2023-01-31T00:00:11;15.63;;;9.50;;
20034;SDS011;10178;48.034;9.800;2023-01-31T00:02:37;16.33;;;10.13;;
20034;SDS011;10178;48.034;9.800;2023-01-31T00:05:03;16.27;;;9.47;;
20034;SDS011;10178;48.034;9.800;2023-01-31T00:07:29;17.57;;;10.00;;
20034;SDS011;10178;48.034;9.800;2023-01-31T00:09:54;16.20;;;10.07;;
20034;SDS011;10178;48.034;9.800;2023-01-31T00:12:20;15.90;;;10.10;;
20034;SDS011;10178;48.034;9.800;2023-01-31T00:14:45;17.00;;;11.20;;
20034;SDS011;10178;48.034;9.800;2023-01-31T00:17:11;18.47;;;10.17;;
20034;SDS011;10178;48.034;9.800;2023-01-31T00:19:36;17.17;;;10.03;;
20034;SDS011;10178;48.034;9.800;2023-01-31T00:22:02;13.50;;;8.53;;
20034;SDS011;10178;48.034;9.800;2023-01-31T00:24:27;14.17;;;8.63;;
20034;SDS011;10178;48.034;9.800;2023-01-31T00:26:53;12.33;;;8.03;;
20034;SDS011;10178;48.034;9.800;2023-01-31T00:29:23;10.00;;;6.73;;
20034;SDS011;10178;48.034;9.800;2023-01-31T00:31:49;10.47;;;6.47;;
20034;SDS011;10178;48.034;9.800;2023-01-31T00:34:16;13.73;;;7.10;;
20034;SDS011;10178;48.034;9.800;2023-01-31T00:36:41;11.97;;;6.80;;
20034;SDS011;10178;48.034;9.800;2023-01-31T00:39:07;9.50;;;6.30;;
20034;SDS011;10178;48.034;9.800;2023-01-31T00:41:34;11.70;;;6.90;;
20034;SDS011;10178;48.034;9.800;2023-01-31T00:44:01;10.23;;;6.53;;
20034;SDS011;10178;48.034;9.800;2023-01-31T00:46:27;11.07;;;7.47;;
20034;SDS011;10178;48.034;9.800;2023-01-31T00:48:53;10.33;;;7.00;;
20034;SDS011;10178;48.034;9.800;2023-01-31T00:51:20;12.37;;;7.10;;
20034;SDS011;10178;48.034;9.800;2023-01-31T00:53:47;11.13;;;8.07;;
20034;SDS011;10178;48.034;9.800;2023-01-31T00:56:14;13.50;;;8.03;;
20034;SDS011;10178;48.034;9.800;2023-01-31T00:58:42;16.30;;;9.07;;
20034;SDS011;10178;48.034;9.800;2023-01-31T01:01:18;15.17;;;8.97;;
20034;SDS011;10178;48.034;9.800;2023-01-31T01:03:49;15.53;;;8.17;;
20034;SDS011;10178;48.034;9.800;2023-01-31T01:06:14;12.73;;;8.87;;
20034;SDS011;10178;48.034;9.800;2023-01-31T01:08:41;13.03;;;8.80;;
20034;SDS011;10178;48.034;9.800;2023-01-31T01:11:08;11.37;;;7.47;;
20034;SDS011;10178;48.034;9.800;2023-01-31T01:13:42;10.70;;;6.50;;
20034;SDS011;10178;48.034;9.800;2023-01-31T01:16:10;11.03;;;6.97;;
20034;SDS011;10178;48.034;9.800;2023-01-31T01:18:37;11.47;;;6.40;;
20034;SDS011;10178;48.034;9.800;2023-01-31T01:21:14;8.97;;;6.20;;
20034;SDS011;10178;48.034;9.800;2023-01-31T01:23:41;9.80;;;6.47;;
20034;SDS011;10178;48.034;9.800;2023-01-31T01:26:18;9.07;;;6.53;;
20034;SDS011;10178;48.034;9.800;2023-01-31T01:28:49;10.77;;;7.07;;
20034;SDS011;10178;48.034;9.800;2023-01-31T01:31:16;10.60;;;6.50;;
20034;SDS011;10178;48.034;9.800;2023-01-31T01:33:43;9.77;;;6.20;;
20034;SDS011;10178;48.034;9.800;2023-01-31T01:36:10;7.90;;;5.83;;
20034;SDS011;10178;48.034;9.800;2023-01-31T01:38:37;9.83;;;6.00;;
20034;SDS011;10178;48.034;9.800;2023-01-31T01:41:05;8.20;;;5.73;;
20034;SDS011;10178;48.034;9.800;2023-01-31T01:49:02;7.80;;;5.67;;
20034;SDS011;10178;48.034;9.800;2023-01-31T01:51:29;9.37;;;6.00;;
20034;SDS011;10178;48.034;9.800;2023-01-31T01:53:59;8.03;;;5.57;;
20034;SDS011;10178;48.034;9.800;2023-01-31T01:56:29;8.07;;;5.73;;
20034;SDS011;10178;48.034;9.800;2023-01-31T02:01:28;8.90;;;5.97;;
20034;SDS011;10178;48.034;9.800;2023-01-31T02:03:58;8.63;;;5.83;;
20034;SDS011;10178;48.034;9.800;2023-01-31T02:06:24;8.93;;;6.03;;
20034;SDS011;10178;48.034;9.800;2023-01-31T02:08:50;8.07;;;5.53;;
20034;SDS011;10178;48.034;9.800;2023-01-31T02:11:19;7.60;;;5.77;;
20034;SDS011;10178;48.034;9.800;2023-01-31T02:13:47;6.97;;;5.43;;
20034;SDS011;10178;48.034;9.800;2023-01-31T02:16:15;7.03;;;5.13;;
20034;SDS011;10178;48.034;9.800;2023-01-31T02:18:41;7.57;;;5.63;;
20034;SDS011;10178;48.034;9.800;2023-01-31T02:24:19;9.47;;;5.83;;
20034;SDS011;10178;48.034;9.800;2023-01-31T02:32:51;9.07;;;6.57;;
20034;SDS011;10178;48.034;9.800;2023-01-31T02:51:27;11.20;;;7.57;;
20034;SDS011;10178;48.034;9.800;2023-01-31T02:54:20;13.63;;;8.03;;
20034;SDS011;10178;48.034;9.800;2023-01-31T02:57:10;16.63;;;9.20;;
20034;SDS011;10178;48.034;9.800;2023-01-31T02:59:36;12.87;;;8.77;;
20034;SDS011;10178;48.034;9.800;2023-01-31T03:02:03;13.30;;;8.00;;
20034;SDS011;10178;48.034;9.800;2023-01-31T03:04:29;8.93;;;6.70;;
20034;SDS011;10178;48.034;9.800;2023-01-31T03:09:31;10.07;;;6.53;;
20034;SDS011;10178;48.034;9.800;2023-01-31T03:12:22;13.23;;;7.97;;
20034;SDS011;10178;48.034;9.800;2023-01-31T03:18:00;10.87;;;7.57;;
20034;SDS011;10178;48.034;9.800;2023-01-31T03:20:43;7.83;;;6.10;;
20034;SDS011;10178;48.034;9.800;2023-01-31T03:23:16;8.60;;;6.27;;
20034;SDS011;10178;48.034;9.800;2023-01-31T03:25:53;8.27;;;6.07;;
20034;SDS011;10178;48.034;9.800;2023-01-31T03:28:22;8.37;;;5.90;;
20034;SDS011;10178;48.034;9.800;2023-01-31T03:30:54;7.17;;;5.30;;
20034;SDS011;10178;48.034;9.800;2023-01-31T03:33:40;8.03;;;5.27;;
20034;SDS011;10178;48.034;9.800;2023-01-31T03:36:11;8.43;;;5.50;;
20034;SDS011;10178;48.034;9.800;2023-01-31T03:42:04;9.53;;;6.30;;
20034;SDS011;10178;48.034;9.800;2023-01-31T03:47:23;7.43;;;5.27;;
20034;SDS011;10178;48.034;9.800;2023-01-31T03:49:54;8.67;;;6.20;;
20034;SDS011;10178;48.034;9.800;2023-01-31T03:52:28;9.20;;;6.27;;
20034;SDS011;10178;48.034;9.800;2023-01-31T03:55:07;8.47;;;5.40;;
20034;SDS011;10178;48.034;9.800;2023-01-31T03:57:39;11.30;;;6.97;;
20034;SDS011;10178;48.034;9.800;2023-01-31T04:00:08;9.13;;;6.23;;
20034;SDS011;10178;48.034;9.800;2023-01-31T04:02:38;8.90;;;6.20;;
20034;SDS011;10178;48.034;9.800;2023-01-31T04:05:16;8.47;;;5.73;;
20034;SDS011;10178;48.034;9.800;2023-01-31T04:07:45;7.57;;;5.27;;
20034;SDS011;10178;48.034;9.800;2023-01-31T04:10:12;8.77;;;6.40;;
20034;SDS011;10178;48.034;9.800;2023-01-31T04:12:42;6.53;;;5.33;;
20034;SDS011;10178;48.034;9.800;2023-01-31T04:15:08;6.90;;;4.77;;
20034;SDS011;10178;48.034;9.800;2023-01-31T04:17:34;6.80;;;5.60;;
20034;SDS011;10178;48.034;9.800;2023-01-31T04:20:00;7.10;;;5.20;;
20034;SDS011;10178;48.034;9.800;2023-01-31T04:22:26;6.17;;;4.33;;
20034;SDS011;10178;48.034;9.800;2023-01-31T04:24:51;9.60;;;5.17;;
20034;SDS011;10178;48.034;9.800;2023-01-31T04:27:17;7.03;;;4.73;;
20034;SDS011;10178;48.034;9.800;2023-01-31T04:29:43;5.90;;;4.47;;
20034;SDS011;10178;48.034;9.800;2023-01-31T04:32:08;7.47;;;4.87;;
20034;SDS011;10178;48.034;9.800;2023-01-31T04:34:34;10.00;;;6.60;;
20034;SDS011;10178;48.034;9.800;2023-01-31T04:36:59;10.33;;;5.90;;
20034;SDS011;10178;48.034;9.800;2023-01-31T04:39:25;6.47;;;5.03;;
20034;SDS011;10178;48.034;9.800;2023-01-31T04:41:51;6.27;;;4.90;;
20034;SDS011;10178;48.034;9.800;2023-01-31T04:44:17;14.20;;;8.87;;
20034;SDS011;10178;48.034;9.800;2023-01-31T04:46:42;10.70;;;7.70;;
20034;SDS011;10178;48.034;9.800;2023-01-31T04:49:10;12.50;;;7.80;;
20034;SDS011;10178;48.034;9.800;2023-01-31T04:51:36;8.90;;;5.97;;
20034;SDS011;10178;48.034;9.800;2023-01-31T04:54:02;9.00;;;5.67;;
20034;SDS011;10178;48.034;9.800;2023-01-31T04:56:28;8.07;;;5.40;;
20034;SDS011;10178;48.034;9.800;2023-01-31T04:58:54;10.40;;;6.80;;
20034;SDS011;10178;48.034;9.800;2023-01-31T05:01:19;11.77;;;7.40;;
20034;SDS011;10178;48.034;9.800;2023-01-31T05:03:45;16.63;;;8.53;;
20034;SDS011;10178;48.034;9.800;2023-01-31T05:06:10;12.03;;;7.73;;
20034;SDS011;10178;48.034;9.800;2023-01-31T05:08:36;17.57;;;8.53;;
20034;SDS011;10178;48.034;9.800;2023-01-31T05:11:02;13.97;;;8.40;;
20034;SDS011;10178;48.034;9.800;2023-01-31T05:13:29;12.30;;;8.60;;
20034;SDS011;10178;48.034;9.800;2023-01-31T05:15:56;18.47;;;9.83;;
20034;SDS011;10178;48.034;9.800;2023-01-31T05:18:24;16.83;;;10.13;;
20034;SDS011;10178;48.034;9.800;2023-01-31T05:20:50;15.10;;;9.07;;
20034;SDS011;10178;48.034;9.800;2023-01-31T05:23:16;11.77;;;7.90;;
20034;SDS011;10178;48.034;9.800;2023-01-31T05:25:42;13.40;;;7.77;;
20034;SDS011;10178;48.034;9.800;2023-01-31T05:28:08;11.20;;;7.83;;
20034;SDS011;10178;48.034;9.800;2023-01-31T05:30:34;13.63;;;8.00;;
20034;SDS011;10178;48.034;9.800;2023-01-31T05:33:00;13.03;;;8.10;;
20034;SDS011;10178;48.034;9.800;2023-01-31T05:35:25;12.00;;;7.10;;
20034;SDS011;10178;48.034;9.800;2023-01-31T05:37:52;11.40;;;6.47;;
20034;SDS011;10178;48.034;9.800;2023-01-31T05:40:18;15.43;;;6.93;;
20034;SDS011;10178;48.034;9.800;2023-01-31T05:42:44;11.40;;;6.67;;
20034;SDS011;10178;48.034;9.800;2023-01-31T05:45:10;11.97;;;6.27;;
20034;SDS011;10178;48.034;9.800;2023-01-31T05:47:36;8.87;;;5.27;;
20034;SDS011;10178;48.034;9.800;2023-01-31T05:50:02;9.23;;;5.33;;
20034;SDS011;10178;48.034;9.800;2023-01-31T05:52:28;8.77;;;5.10;;
20034;SDS011;10178;48.034;9.800;2023-01-31T05:54:54;8.47;;;5.77;;
20034;SDS011;10178;48.034;9.800;2023-01-31T05:57:19;8.77;;;5.60;;
20034;SDS011;10178;48.034;9.800;2023-01-31T05:59:45;8.37;;;5.67;;
20034;SDS011;10178;48.034;9.800;2023-01-31T06:02:11;10.57;;;7.90;;
20034;SDS011;10178;48.034;9.800;2023-01-31T06:04:37;13.13;;;8.90;;
20034;SDS011;10178;48.034;9.800;2023-01-31T06:07:02;12.07;;;7.03;;
20034;SDS011;10178;48.034;9.800;2023-01-31T06:09:28;9.87;;;5.90;;
20034;SDS011;10178;48.034;9.800;2023-01-31T06:11:54;9.30;;;5.80;;
20034;SDS011;10178;48.034;9.800;2023-01-31T06:14:20;8.13;;;6.07;;
20034;SDS011;10178;48.034;9.800;2023-01-31T06:16:45;11.53;;;8.43;;
20034;SDS011;10178;48.034;9.800;2023-01-31T06:19:11;11.10;;;7.13;;
20034;SDS011;10178;48.034;9.800;2023-01-31T06:21:37;11.20;;;8.00;;
20034;SDS011;10178;48.034;9.800;2023-01-31T06:24:02;10.70;;;6.83;;
20034;SDS011;10178;48.034;9.800;2023-01-31T06:26:28;11.07;;;7.17;;
20034;SDS011;10178;48.034;9.800;2023-01-31T06:28:54;10.83;;;6.23;;
20034;SDS011;10178;48.034;9.800;2023-01-31T06:31:19;9.40;;;6.33;;
20034;SDS011;10178;48.034;9.800;2023-01-31T06:33:45;10.13;;;6.53;;
20034;SDS011;10178;48.034;9.800;2023-01-31T06:36:11;12.43;;;6.23;;
20034;SDS011;10178;48.034;9.800;2023-01-31T06:38:37;13.83;;;7.67;;
20034;SDS011;10178;48.034;9.800;2023-01-31T06:41:02;11.80;;;6.87;;
20034;SDS011;10178;48.034;9.800;2023-01-31T06:43:28;11.80;;;8.00;;
20034;SDS011;10178;48.034;9.800;2023-01-31T06:45:53;11.53;;;7.93;;
20034;SDS011;10178;48.034;9.800;2023-01-31T06:48:19;11.10;;;6.53;;
20034;SDS011;10178;48.034;9.800;2023-01-31T06:50:45;10.90;;;6.53;;
20034;SDS011;10178;48.034;9.800;2023-01-31T06:53:10;7.00;;;5.40;;
20034;SDS011;10178;48.034;9.800;2023-01-31T06:55:36;7.87;;;5.97;;
20034;SDS011;10178;48.034;9.800;2023-01-31T06:58:03;9.30;;;5.83;;
20034;SDS011;10178;48.034;9.800;2023-01-31T07:00:28;11.47;;;6.40;;
20034;SDS011;10178;48.034;9.800;2023-01-31T07:02:54;9.20;;;5.70;;
20034;SDS011;10178;48.034;9.800;2023-01-31T07:05:20;11.07;;;6.10;;
20034;SDS011;10178;48.034;9.800;2023-01-31T07:07:47;10.13;;;6.33;;
20034;SDS011;10178;48.034;9.800;2023-01-31T07:10:13;9.03;;;5.50;;
20034;SDS011;10178;48.034;9.800;2023-01-31T07:12:40;9.77;;;5.77;;
20034;SDS011;10178;48.034;9.800;2023-01-31T07:15:06;9.37;;;5.60;;
20034;SDS011;10178;48.034;9.800;2023-01-31T07:17:32;10.13;;;5.93;;
20034;SDS011;10178;48.034;9.800;2023-01-31T07:19:58;7.07;;;5.57;;
20034;SDS011;10178;48.034;9.800;2023-01-31T07:22:24;8.70;;;5.60;;
20034;SDS011;10178;48.034;9.800;2023-01-31T07:24:49;9.27;;;5.63;;
20034;SDS011;10178;48.034;9.800;2023-01-31T07:27:15;6.43;;;5.10;;
20034;SDS011;10178;48.034;9.800;2023-01-31T07:29:41;11.00;;;6.40;;
20034;SDS011;10178;48.034;9.800;2023-01-31T07:32:07;11.87;;;6.90;;
20034;SDS011;10178;48.034;9.800;2023-01-31T07:34:33;12.43;;;8.00;;
20034;SDS011;10178;48.034;9.800;2023-01-31T07:36:59;10.80;;;7.77;;
20034;SDS011;10178;48.034;9.800;2023-01-31T07:39:25;13.63;;;8.90;;
20034;SDS011;10178;48.034;9.800;2023-01-31T07:41:51;19.63;;;10.93;;
20034;SDS011;10178;48.034;9.800;2023-01-31T07:44:16;10.73;;;7.13;;
20034;SDS011;10178;48.034;9.800;2023-01-31T07:46:42;12.27;;;6.40;;
20034;SDS011;10178;48.034;9.800;2023-01-31T07:49:08;9.87;;;6.50;;
20034;SDS011;10178;48.034;9.800;2023-01-31T07:51:34;8.10;;;5.60;;
20034;SDS011;10178;48.034;9.800;2023-01-31T07:54:00;13.63;;;8.70;;
20034;SDS011;10178;48.034;9.800;2023-01-31T07:56:26;13.17;;;8.30;;
20034;SDS011;10178;48.034;9.800;2023-01-31T07:58:52;11.40;;;8.03;;
20034;SDS011;10178;48.034;9.800;2023-01-31T08:01:19;12.87;;;7.70;;
20034;SDS011;10178;48.034;9.800;2023-01-31T08:04:05;14.33;;;8.53;;
20034;SDS011;10178;48.034;9.800;2023-01-31T08:06:33;11.87;;;6.63;;
20034;SDS011;10178;48.034;9.800;2023-01-31T08:09:00;11.17;;;6.07;;
20034;SDS011;10178;48.034;9.800;2023-01-31T08:11:26;9.90;;;5.87;;
20034;SDS011;10178;48.034;9.800;2023-01-31T08:13:52;9.77;;;6.43;;
20034;SDS011;10178;48.034;9.800;2023-01-31T08:16:18;8.13;;;5.90;;
20034;SDS011;10178;48.034;9.800;2023-01-31T08:18:45;11.60;;;7.40;;
20034;SDS011;10178;48.034;9.800;2023-01-31T08:21:11;9.23;;;6.37;;
20034;SDS011;10178;48.034;9.800;2023-01-31T08:23:38;8.90;;;5.93;;
20034;SDS011;10178;48.034;9.800;2023-01-31T08:28:38;8.87;;;5.77;;
20034;SDS011;10178;48.034;9.800;2023-01-31T08:31:05;8.33;;;5.87;;
20034;SDS011;10178;48.034;9.800;2023-01-31T08:33:31;9.53;;;5.87;;
20034;SDS011;10178;48.034;9.800;2023-01-31T08:35:56;8.90;;;6.17;;
20034;SDS011;10178;48.034;9.800;2023-01-31T08:38:31;12.20;;;6.07;;
20034;SDS011;10178;48.034;9.800;2023-01-31T08:40:57;8.93;;;5.37;;
20034;SDS011;10178;48.034;9.800;2023-01-31T08:43:23;8.70;;;6.00;;
20034;SDS011;10178;48.034;9.800;2023-01-31T08:45:48;7.77;;;5.40;;
20034;SDS011;10178;48.034;9.800;2023-01-31T08:48:14;9.00;;;5.70;;
20034;SDS011;10178;48.034;9.800;2023-01-31T08:50:39;20.80;;;6.47;;
20034;SDS011;10178;48.034;9.800;2023-01-31T08:53:05;11.50;;;6.43;;
20034;SDS011;10178;48.034;9.800;2023-01-31T08:55:33;12.77;;;5.83;;
20034;SDS011;10178;48.034;9.800;2023-01-31T08:57:59;11.20;;;5.90;;
20034;SDS011;10178;48.034;9.800;2023-01-31T09:00:26;11.07;;;5.57;;
20034;SDS011;10178;48.034;9.800;2023-01-31T09:02:53;11.23;;;5.60;;
20034;SDS011;10178;48.034;9.800;2023-01-31T09:05:20;9.33;;;5.43;;
20034;SDS011;10178;48.034;9.800;2023-01-31T09:07:46;12.00;;;5.17;;
20034;SDS011;10178;48.034;9.800;2023-01-31T09:10:11;11.90;;;5.90;;
20034;SDS011;10178;48.034;9.800;2023-01-31T09:12:37;14.60;;;7.05;;
20034;SDS011;10178;48.034;9.800;2023-01-31T09:15:03;10.90;;;6.63;;
20034;SDS011;10178;48.034;9.800;2023-01-31T09:17:29;11.73;;;5.63;;
20034;SDS011;10178;48.034;9.800;2023-01-31T09:19:55;11.40;;;5.33;;
20034;SDS011;10178;48.034;9.800;2023-01-31T09:22:22;9.40;;;5.00;;
20034;SDS011;10178;48.034;9.800;2023-01-31T09:24:48;8.43;;;5.03;;
20034;SDS011;10178;48.034;9.800;2023-01-31T09:27:14;7.03;;;4.30;;
20034;SDS011;10178;48.034;9.800;2023-01-31T09:29:41;8.77;;;5.37;;
20034;SDS011;10178;48.034;9.800;2023-01-31T09:32:07;10.43;;;4.77;;
20034;SDS011;10178;48.034;9.800;2023-01-31T09:34:33;8.53;;;4.27;;
20034;SDS011;10178;48.034;9.800;2023-01-31T09:36:59;8.57;;;4.83;;
20034;SDS011;10178;48.034;9.800;2023-01-31T09:39:25;8.43;;;4.63;;
20034;SDS011;10178;48.034;9.800;2023-01-31T09:41:52;8.77;;;4.70;;
20034;SDS011;10178;48.034;9.800;2023-01-31T09:44:32;12.57;;;4.87;;
20034;SDS011;10178;48.034;9.800;2023-01-31T09:47:12;8.80;;;4.90;;
20034;SDS011;10178;48.034;9.800;2023-01-31T09:50:00;15.83;;;4.73;;
20034;SDS011;10178;48.034;9.800;2023-01-31T09:52:37;7.67;;;4.07;;
20034;SDS011;10178;48.034;9.800;2023-01-31T09:55:04;6.07;;;4.17;;
20034;SDS011;10178;48.034;9.800;2023-01-31T10:00:45;9.37;;;4.13;;
20034;SDS011;10178;48.034;9.800;2023-01-31T10:03:38;7.70;;;3.93;;
20034;SDS011;10178;48.034;9.800;2023-01-31T10:09:07;11.57;;;4.53;;
20034;SDS011;10178;48.034;9.800;2023-01-31T10:16:46;9.23;;;4.40;;
20034;SDS011;10178;48.034;9.800;2023-01-31T10:19:21;5.90;;;3.60;;
20034;SDS011;10178;48.034;9.800;2023-01-31T10:21:52;6.67;;;4.00;;
20034;SDS011;10178;48.034;9.800;2023-01-31T10:26:59;6.77;;;3.97;;
20034;SDS011;10178;48.034;9.800;2023-01-31T10:29:31;6.30;;;3.67;;
20034;SDS011;10178;48.034;9.800;2023-01-31T10:32:04;8.73;;;5.00;;
20034;SDS011;10178;48.034;9.800;2023-01-31T10:34:59;6.47;;;4.20;;
20034;SDS011;10178;48.034;9.800;2023-01-31T10:37:36;9.93;;;4.50;;
20034;SDS011;10178;48.034;9.800;2023-01-31T10:40:12;9.70;;;5.27;;
20034;SDS011;10178;48.034;9.800;2023-01-31T10:42:44;7.57;;;5.07;;
20034;SDS011;10178;48.034;9.800;2023-01-31T10:45:20;8.73;;;4.30;;
20034;SDS011;10178;48.034;9.800;2023-01-31T10:47:51;9.43;;;5.20;;
20034;SDS011;10178;48.034;9.800;2023-01-31T10:56:00;7.30;;;4.57;;
20034;SDS011;10178;48.034;9.800;2023-01-31T10:58:30;7.80;;;5.10;;
20034;SDS011;10178;48.034;9.800;2023-01-31T11:00:56;9.90;;;5.10;;
20034;SDS011;10178;48.034;9.800;2023-01-31T11:03:22;9.43;;;5.10;;
20034;SDS011;10178;48.034;9.800;2023-01-31T11:05:55;7.10;;;4.73;;
20034;SDS011;10178;48.034;9.800;2023-01-31T11:08:24;7.43;;;5.00;;
20034;SDS011;10178;48.034;9.800;2023-01-31T11:10:55;8.90;;;5.67;;
20034;SDS011;10178;48.034;9.800;2023-01-31T11:13:22;14.57;;;5.97;;
20034;SDS011;10178;48.034;9.800;2023-01-31T11:15:48;9.93;;;5.80;;
20034;SDS011;10178;48.034;9.800;2023-01-31T11:18:31;7.80;;;4.70;;
20034;SDS011;10178;48.034;9.800;2023-01-31T11:21:00;9.73;;;4.90;;
20034;SDS011;10178;48.034;9.800;2023-01-31T11:23:28;9.83;;;5.63;;
20034;SDS011;10178;48.034;9.800;2023-01-31T11:25:56;8.50;;;5.17;;
20034;SDS011;10178;48.034;9.800;2023-01-31T11:28:26;10.77;;;6.90;;
20034;SDS011;10178;48.034;9.800;2023-01-31T11:31:24;8.77;;;6.33;;
20034;SDS011;10178;48.034;9.800;2023-01-31T11:36:25;7.33;;;5.13;;
20034;SDS011;10178;48.034;9.800;2023-01-31T11:38:56;9.80;;;5.60;;
20034;SDS011;10178;48.034;9.800;2023-01-31T11:44:09;11.33;;;5.43;;
20034;SDS011;10178;48.034;9.800;2023-01-31T11:51:53;9.73;;;5.50;;
20034;SDS011;10178;48.034;9.800;2023-01-31T11:54:23;11.20;;;5.03;;
20034;SDS011;10178;48.034;9.800;2023-01-31T11:56:52;8.63;;;4.90;;
20034;SDS011;10178;48.034;9.800;2023-01-31T11:59:21;10.07;;;5.53;;
20034;SDS011;10178;48.034;9.800;2023-01-31T12:01:52;8.27;;;5.23;;
20034;SDS011;10178;48.034;9.800;2023-01-31T12:04:22;8.47;;;5.40;;
20034;SDS011;10178;48.034;9.800;2023-01-31T12:07:01;9.27;;;5.33;;
20034;SDS011;10178;48.034;9.800;2023-01-31T12:09:44;8.47;;;5.73;;
20034;SDS011;10178;48.034;9.800;2023-01-31T12:14:58;7.97;;;5.13;;
20034;SDS011;10178;48.034;9.800;2023-01-31T12:17:27;13.20;;;5.00;;
20034;SDS011;10178;48.034;9.800;2023-01-31T12:31:04;10.03;;;5.77;;
20034;SDS011;10178;48.034;9.800;2023-01-31T12:39:35;9.83;;;5.30;;
20034;SDS011;10178;48.034;9.800;2023-01-31T12:44:52;8.93;;;5.47;;
20034;SDS011;10178;48.034;9.800;2023-01-31T12:48:08;9.43;;;5.03;;
20034;SDS011;10178;48.034;9.800;2023-01-31T12:56:42;6.97;;;4.40;;
20034;SDS011;10178;48.034;9.800;2023-01-31T13:07:11;7.77;;;4.77;;
20034;SDS011;10178;48.034;9.800;2023-01-31T13:09:40;7.90;;;4.67;;
20034;SDS011;10178;48.034;9.800;2023-01-31T13:12:12;11.33;;;5.27;;
20034;SDS011;10178;48.034;9.800;2023-01-31T13:14:48;8.63;;;4.50;;
20034;SDS011;10178;48.034;9.800;2023-01-31T13:17:24;7.77;;;4.70;;
20034;SDS011;10178;48.034;9.800;2023-01-31T13:22:28;8.67;;;5.27;;
20034;SDS011;10178;48.034;9.800;2023-01-31T13:27:48;6.23;;;4.57;;
20034;SDS011;10178;48.034;9.800;2023-01-31T13:30:34;6.87;;;4.67;;
20034;SDS011;10178;48.034;9.800;2023-01-31T13:39:00;8.33;;;5.00;;
20034;SDS011;10178;48.034;9.800;2023-01-31T13:41:32;7.87;;;4.70;;
20034;SDS011;10178;48.034;9.800;2023-01-31T13:43:59;8.93;;;4.77;;
20034;SDS011;10178;48.034;9.800;2023-01-31T13:46:41;10.80;;;5.77;;
20034;SDS011;10178;48.034;9.800;2023-01-31T13:49:24;11.80;;;6.07;;
20034;SDS011;10178;48.034;9.800;2023-01-31T13:51:58;10.43;;;5.53;;
20034;SDS011;10178;48.034;9.800;2023-01-31T13:54:46;7.93;;;4.67;;
20034;SDS011;10178;48.034;9.800;2023-01-31T13:57:21;9.17;;;5.33;;
20034;SDS011;10178;48.034;9.800;2023-01-31T13:59:53;8.83;;;5.33;;
20034;SDS011;10178;48.034;9.800;2023-01-31T14:02:25;9.23;;;5.63;;
20034;SDS011;10178;48.034;9.800;2023-01-31T14:04:51;11.33;;;5.47;;
20034;SDS011;10178;48.034;9.800;2023-01-31T14:07:17;8.80;;;5.17;;
20034;SDS011;10178;48.034;9.800;2023-01-31T14:14:41;8.13;;;4.70;;
20034;SDS011;10178;48.034;9.800;2023-01-31T14:17:10;10.10;;;5.30;;
20034;SDS011;10178;48.034;9.800;2023-01-31T14:22:23;7.97;;;4.97;;
20034;SDS011;10178;48.034;9.800;2023-01-31T14:32:34;6.77;;;4.80;;
20034;SDS011;10178;48.034;9.800;2023-01-31T14:51:30;8.70;;;6.07;;
20034;SDS011;10178;48.034;9.800;2023-01-31T14:57:24;7.43;;;5.17;;
20034;SDS011;10178;48.034;9.800;2023-01-31T15:02:54;9.53;;;5.03;;
20034;SDS011;10178;48.034;9.800;2023-01-31T15:16:22;6.00;;;4.63;;
20034;SDS011;10178;48.034;9.800;2023-01-31T15:19:07;10.13;;;5.20;;
20034;SDS011;10178;48.034;9.800;2023-01-31T15:21:43;9.07;;;5.30;;
20034;SDS011;10178;48.034;9.800;2023-01-31T15:24:16;7.93;;;4.70;;
20034;SDS011;10178;48.034;9.800;2023-01-31T15:26:44;6.77;;;4.70;;
20034;SDS011;10178;48.034;9.800;2023-01-31T15:29:17;6.37;;;4.67;;
20034;SDS011;10178;48.034;9.800;2023-01-31T15:31:47;7.20;;;4.70;;
20034;SDS011;10178;48.034;9.800;2023-01-31T15:34:18;6.73;;;4.50;;
20034;SDS011;10178;48.034;9.800;2023-01-31T15:37:07;9.10;;;4.43;;
20034;SDS011;10178;48.034;9.800;2023-01-31T15:40:16;8.03;;;4.80;;
20034;SDS011;10178;48.034;9.800;2023-01-31T15:42:45;7.70;;;4.30;;
20034;SDS011;10178;48.034;9.800;2023-01-31T15:47:39;9.97;;;4.93;;
20034;SDS011;10178;48.034;9.800;2023-01-31T15:50:46;8.47;;;4.53;;
20034;SDS011;10178;48.034;9.800;2023-01-31T15:53:01;8.97;;;5.37;;
20034;SDS011;10178;48.034;9.800;2023-01-31T15:55:37;9.83;;;4.13;;
20034;SDS011;10178;48.034;9.800;2023-01-31T15:58:04;11.33;;;4.43;;
20034;SDS011;10178;48.034;9.800;2023-01-31T16:00:32;8.33;;;4.20;;
20034;SDS011;10178;48.034;9.800;2023-01-31T16:03:01;16.97;;;4.80;;
20034;SDS011;10178;48.034;9.800;2023-01-31T16:05:31;7.90;;;3.77;;
20034;SDS011;10178;48.034;9.800;2023-01-31T16:08:00;10.77;;;4.57;;
20034;SDS011;10178;48.034;9.800;2023-01-31T16:10:28;8.50;;;4.40;;
20034;SDS011;10178;48.034;9.800;2023-01-31T16:12:55;4.60;;;3.73;;
20034;SDS011;10178;48.034;9.800;2023-01-31T16:15:23;8.70;;;4.37;;
20034;SDS011;10178;48.034;9.800;2023-01-31T16:17:51;8.47;;;4.00;;
20034;SDS011;10178;48.034;9.800;2023-01-31T16:23:28;5.53;;;3.33;;
20034;SDS011;10178;48.034;9.800;2023-01-31T16:28:24;11.20;;;4.07;;
20034;SDS011;10178;48.034;9.800;2023-01-31T16:30:51;9.00;;;3.60;;
20034;SDS011;10178;48.034;9.800;2023-01-31T16:33:20;4.67;;;3.50;;
20034;SDS011;10178;48.034;9.800;2023-01-31T16:35:50;8.67;;;3.47;;
20034;SDS011;10178;48.034;9.800;2023-01-31T16:38:35;7.23;;;3.53;;
20034;SDS011;10178;48.034;9.800;2023-01-31T16:41:04;4.70;;;3.23;;
20034;SDS011;10178;48.034;9.800;2023-01-31T16:43:36;6.20;;;3.60;;
20034;SDS011;10178;48.034;9.800;2023-01-31T16:46:20;10.47;;;3.80;;
20034;SDS011;10178;48.034;9.800;2023-01-31T16:49:04;8.00;;;3.63;;
20034;SDS011;10178;48.034;9.800;2023-01-31T16:51:39;6.70;;;3.50;;
20034;SDS011;10178;48.034;9.800;2023-01-31T16:56:41;6.00;;;3.20;;
20034;SDS011;10178;48.034;9.800;2023-01-31T17:02:03;7.77;;;4.03;;
20034;SDS011;10178;48.034;9.800;2023-01-31T17:04:42;6.20;;;3.87;;
20034;SDS011;10178;48.034;9.800;2023-01-31T17:09:57;6.97;;;3.63;;
20034;SDS011;10178;48.034;9.800;2023-01-31T17:12:27;8.77;;;4.60;;
20034;SDS011;10178;48.034;9.800;2023-01-31T17:14:55;10.30;;;4.13;;
20034;SDS011;10178;48.034;9.800;2023-01-31T17:17:32;7.50;;;4.27;;
20034;SDS011;10178;48.034;9.800;2023-01-31T17:19:58;8.80;;;4.17;;
20034;SDS011;10178;48.034;9.800;2023-01-31T17:22:24;7.60;;;3.77;;
20034;SDS011;10178;48.034;9.800;2023-01-31T17:24:50;10.60;;;3.70;;
20034;SDS011;10178;48.034;9.800;2023-01-31T17:27:17;7.43;;;4.00;;
20034;SDS011;10178;48.034;9.800;2023-01-31T17:29:44;8.80;;;4.30;;
20034;SDS011;10178;48.034;9.800;2023-01-31T17:32:12;10.47;;;6.87;;
20034;SDS011;10178;48.034;9.800;2023-01-31T17:34:43;5.40;;;3.63;;
20034;SDS011;10178;48.034;9.800;2023-01-31T17:37:10;7.30;;;4.23;;
20034;SDS011;10178;48.034;9.800;2023-01-31T17:39:36;7.27;;;3.97;;
20034;SDS011;10178;48.034;9.800;2023-01-31T17:42:02;7.40;;;3.63;;
20034;SDS011;10178;48.034;9.800;2023-01-31T17:44:29;9.30;;;3.77;;
20034;SDS011;10178;48.034;9.800;2023-01-31T17:46:54;8.70;;;4.13;;
20034;SDS011;10178;48.034;9.800;2023-01-31T17:49:20;7.53;;;4.87;;
20034;SDS011;10178;48.034;9.800;2023-01-31T17:51:46;10.63;;;6.97;;
20034;SDS011;10178;48.034;9.800;2023-01-31T17:54:11;8.73;;;4.40;;
20034;SDS011;10178;48.034;9.800;2023-01-31T17:56:37;8.80;;;5.27;;
20034;SDS011;10178;48.034;9.800;2023-01-31T17:59:03;6.33;;;4.30;;
20034;SDS011;10178;48.034;9.800;2023-01-31T18:01:29;8.60;;;4.23;;
20034;SDS011;10178;48.034;9.800;2023-01-31T18:03:55;7.03;;;4.60;;
20034;SDS011;10178;48.034;9.800;2023-01-31T18:06:22;8.23;;;4.33;;